sensor_id;sensor_type;location;lat;lon;timestamp;temperature;humidity
17728;DHT22;8984;49.268;12.302;2023-02-15T00:01:24;3.40;99.90
17728;DHT22;8984;49.268;12.302;2023-02-15T00:03:51;3.40;99.90
17728;DHT22;8984;49.268;12.302;2023-02-15T00:06:19;3.50;99.90
17728;DHT22;8984;49.268;12.302;2023-02-15T00:08:46;3.40;99.90
17728;DHT22;8984;49.268;12.302;2023-02-15T00:11:14;3.40;99.90
17728;DHT22;8984;49.268;12.302;2023-02-15T00:13:42;3.30;99.90
17728;DHT22;8984;49.268;12.302;2023-02-15T00:16:10;3.40;99.90
17728;DHT22;8984;49.268;12.302;2023-02-15T00:18:38;3.40;99.90
17728;DHT22;8984;49.268;12.302;2023-02-15T00:21:06;3.40;99.90
17728;DHT22;8984;49.268;12.302;2023-02-15T00:23:35;3.40;99.90
17728;DHT22;8984;49.268;12.302;2023-02-15T00:26:06;3.50;99.90
17728;DHT22;8984;49.268;12.302;2023-02-15T00:28:35;3.50;99.90
17728;DHT22;8984;49.268;12.302;2023-02-15T00:31:04;3.40;99.90
17728;DHT22;8984;49.268;12.302;2023-02-15T00:33:31;3.30;99.90
17728;DHT22;8984;49.268;12.302;2023-02-15T00:35:58;3.20;99.90
17728;DHT22;8984;49.268;12.302;2023-02-15T00:38:26;3.10;99.90
17728;DHT22;8984;49.268;12.302;2023-02-15T00:40:55;3.00;99.90
17728;DHT22;8984;49.268;12.302;2023-02-15T00:43:21;2.80;99.90
17728;DHT22;8984;49.268;12.302;2023-02-15T00:45:48;2.90;99.90
17728;DHT22;8984;49.268;12.302;2023-02-15T00:48:15;2.90;99.90
17728;DHT22;8984;49.268;12.302;2023-02-15T00:50:44;2.80;99.90
17728;DHT22;8984;49.268;12.302;2023-02-15T00:53:11;2.70;99.90
17728;DHT22;8984;49.268;12.302;2023-02-15T00:55:40;2.70;99.90
17728;DHT22;8984;49.268;12.302;2023-02-15T00:58:09;2.80;99.90
17728;DHT22;8984;49.268;12.302;2023-02-15T01:00:37;2.80;99.90
17728;DHT22;8984;49.268;12.302;2023-02-15T01:03:04;2.80;99.90
17728;DHT22;8984;49.268;12.302;2023-02-15T01:05:32;2.90;99.90
17728;DHT22;8984;49.268;12.302;2023-02-15T01:07:59;2.80;99.90
17728;DHT22;8984;49.268;12.302;2023-02-15T01:10:26;2.90;99.90
17728;DHT22;8984;49.268;12.302;2023-02-15T01:12:54;2.80;99.90
17728;DHT22;8984;49.268;12.302;2023-02-15T01:15:23;2.90;99.90
17728;DHT22;8984;49.268;12.302;2023-02-15T01:17:50;2.90;99.90
17728;DHT22;8984;49.268;12.302;2023-02-15T01:20:19;3.00;99.90
17728;DHT22;8984;49.268;12.302;2023-02-15T01:22:45;3.00;99.90
17728;DHT22;8984;49.268;12.302;2023-02-15T01:25:15;3.00;99.90
17728;DHT22;8984;49.268;12.302;2023-02-15T01:27:42;2.80;99.90
17728;DHT22;8984;49.268;12.302;2023-02-15T01:30:09;2.80;99.90
17728;DHT22;8984;49.268;12.302;2023-02-15T01:32:38;2.80;99.90
17728;DHT22;8984;49.268;12.302;2023-02-15T01:35:05;2.80;99.90
17728;DHT22;8984;49.268;12.302;2023-02-15T01:37:33;2.80;99.90
17728;DHT22;8984;49.268;12.302;2023-02-15T01:40:00;2.70;99.90
17728;DHT22;8984;49.268;12.302;2023-02-15T01:42:28;2.70;99.90
17728;DHT22;8984;49.268;12.302;2023-02-15T01:44:56;2.70;99.90
17728;DHT22;8984;49.268;12.302;2023-02-15T01:47:29;2.70;99.90
17728;DHT22;8984;49.268;12.302;2023-02-15T01:50:06;2.70;99.90
17728;DHT22;8984;49.268;12.302;2023-02-15T01:52:35;2.70;99.90
17728;DHT22;8984;49.268;12.302;2023-02-15T01:55:04;2.70;99.90
17728;DHT22;8984;49.268;12.302;2023-02-15T01:57:32;2.60;99.90
17728;DHT22;8984;49.268;12.302;2023-02-15T02:00:00;2.50;99.90
17728;DHT22;8984;49.268;12.302;2023-02-15T02:02:28;2.50;99.90
17728;DHT22;8984;49.268;12.302;2023-02-15T02:04:59;2.40;99.90
17728;DHT22;8984;49.268;12.302;2023-02-15T02:07:32;2.40;99.90
17728;DHT22;8984;49.268;12.302;2023-02-15T02:10:01;2.30;99.90
17728;DHT22;8984;49.268;12.302;2023-02-15T02:12:29;2.30;99.90
17728;DHT22;8984;49.268;12.302;2023-02-15T02:14:57;2.30;99.90
17728;DHT22;8984;49.268;12.302;2023-02-15T02:20:28;2.40;99.90
17728;DHT22;8984;49.268;12.302;2023-02-15T02:23:30;2.40;99.90
17728;DHT22;8984;49.268;12.302;2023-02-15T02:32:28;2.50;99.90
17728;DHT22;8984;49.268;12.302;2023-02-15T02:35:02;2.50;99.90
17728;DHT22;8984;49.268;12.302;2023-02-15T02:37:40;2.50;99.90
17728;DHT22;8984;49.268;12.302;2023-02-15T02:40:15;2.50;99.90
17728;DHT22;8984;49.268;12.302;2023-02-15T02:42:45;2.50;99.90
17728;DHT22;8984;49.268;12.302;2023-02-15T02:45:19;2.60;99.90
17728;DHT22;8984;49.268;12.302;2023-02-15T02:47:50;2.50;99.90
17728;DHT22;8984;49.268;12.302;2023-02-15T02:50:22;2.50;99.90
17728;DHT22;8984;49.268;12.302;2023-02-15T02:52:52;2.40;99.90
17728;DHT22;8984;49.268;12.302;2023-02-15T02:55:21;2.20;99.90
17728;DHT22;8984;49.268;12.302;2023-02-15T02:57:53;2.10;99.90
17728;DHT22;8984;49.268;12.302;2023-02-15T03:00:23;2.00;99.90
17728;DHT22;8984;49.268;12.302;2023-02-15T03:02:55;1.90;99.90
17728;DHT22;8984;49.268;12.302;2023-02-15T03:05:28;2.00;99.90
17728;DHT22;8984;49.268;12.302;2023-02-15T03:07:56;2.10;99.90
17728;DHT22;8984;49.268;12.302;2023-02-15T03:10:24;2.00;99.90
17728;DHT22;8984;49.268;12.302;2023-02-15T03:12:52;2.00;99.90
17728;DHT22;8984;49.268;12.302;2023-02-15T03:15:20;2.00;99.90
17728;DHT22;8984;49.268;12.302;2023-02-15T03:17:51;2.00;99.90
17728;DHT22;8984;49.268;12.302;2023-02-15T03:20:21;2.10;99.90
17728;DHT22;8984;49.268;12.302;2023-02-15T03:22:55;2.10;99.90
17728;DHT22;8984;49.268;12.302;2023-02-15T03:25:25;2.10;99.90
17728;DHT22;8984;49.268;12.302;2023-02-15T03:27:55;2.20;99.90
17728;DHT22;8984;49.268;12.302;2023-02-15T03:30:26;2.20;99.90
17728;DHT22;8984;49.268;12.302;2023-02-15T03:32:55;2.20;99.90
17728;DHT22;8984;49.268;12.302;2023-02-15T03:35:25;2.30;99.90
17728;DHT22;8984;49.268;12.302;2023-02-15T03:38:00;2.30;99.90
17728;DHT22;8984;49.268;12.302;2023-02-15T03:40:30;2.40;99.90
17728;DHT22;8984;49.268;12.302;2023-02-15T03:43:21;2.30;99.90
17728;DHT22;8984;49.268;12.302;2023-02-15T03:45:54;2.30;99.90
17728;DHT22;8984;49.268;12.302;2023-02-15T03:48:25;2.20;99.90
17728;DHT22;8984;49.268;12.302;2023-02-15T03:50:55;2.10;99.90
17728;DHT22;8984;49.268;12.302;2023-02-15T03:53:46;2.00;99.90
17728;DHT22;8984;49.268;12.302;2023-02-15T03:56:13;1.90;99.90
17728;DHT22;8984;49.268;12.302;2023-02-15T03:58:40;1.90;99.90
17728;DHT22;8984;49.268;12.302;2023-02-15T04:01:29;1.90;99.90
17728;DHT22;8984;49.268;12.302;2023-02-15T04:04:30;1.90;99.90
17728;DHT22;8984;49.268;12.302;2023-02-15T04:06:58;1.90;99.90
17728;DHT22;8984;49.268;12.302;2023-02-15T04:09:27;1.90;99.90
17728;DHT22;8984;49.268;12.302;2023-02-15T04:12:11;1.90;99.90
17728;DHT22;8984;49.268;12.302;2023-02-15T04:14:38;1.90;99.90
17728;DHT22;8984;49.268;12.302;2023-02-15T04:17:22;1.90;99.90
17728;DHT22;8984;49.268;12.302;2023-02-15T04:19:49;1.90;99.90
17728;DHT22;8984;49.268;12.302;2023-02-15T04:22:33;2.00;99.90
17728;DHT22;8984;49.268;12.302;2023-02-15T04:25:20;2.00;99.90
17728;DHT22;8984;49.268;12.302;2023-02-15T04:27:49;1.90;99.90
17728;DHT22;8984;49.268;12.302;2023-02-15T04:30:18;2.00;99.90
17728;DHT22;8984;49.268;12.302;2023-02-15T04:32:46;2.00;99.90
17728;DHT22;8984;49.268;12.302;2023-02-15T04:35:13;2.00;99.90
17728;DHT22;8984;49.268;12.302;2023-02-15T04:37:40;2.10;99.90
17728;DHT22;8984;49.268;12.302;2023-02-15T04:40:09;2.20;99.90
17728;DHT22;8984;49.268;12.302;2023-02-15T04:42:37;2.20;99.90
17728;DHT22;8984;49.268;12.302;2023-02-15T04:45:05;2.20;99.90
17728;DHT22;8984;49.268;12.302;2023-02-15T04:47:32;2.20;99.90
17728;DHT22;8984;49.268;12.302;2023-02-15T04:49:58;2.30;99.90
17728;DHT22;8984;49.268;12.302;2023-02-15T04:52:26;2.40;99.90
17728;DHT22;8984;49.268;12.302;2023-02-15T04:54:52;2.40;99.90
17728;DHT22;8984;49.268;12.302;2023-02-15T04:57:19;2.40;99.90
17728;DHT22;8984;49.268;12.302;2023-02-15T04:59:49;2.40;99.90
17728;DHT22;8984;49.268;12.302;2023-02-15T05:02:16;2.30;99.90
17728;DHT22;8984;49.268;12.302;2023-02-15T05:04:43;2.30;99.90
17728;DHT22;8984;49.268;12.302;2023-02-15T05:07:09;2.40;99.90
17728;DHT22;8984;49.268;12.302;2023-02-15T05:09:36;2.30;99.90
17728;DHT22;8984;49.268;12.302;2023-02-15T05:12:03;2.40;99.90
17728;DHT22;8984;49.268;12.302;2023-02-15T05:14:30;2.40;99.90
17728;DHT22;8984;49.268;12.302;2023-02-15T05:16:58;2.40;99.90
17728;DHT22;8984;49.268;12.302;2023-02-15T05:19:27;2.40;99.90
17728;DHT22;8984;49.268;12.302;2023-02-15T05:21:53;2.30;99.90
17728;DHT22;8984;49.268;12.302;2023-02-15T05:24:20;2.40;99.90
17728;DHT22;8984;49.268;12.302;2023-02-15T05:27:04;2.50;99.90
17728;DHT22;8984;49.268;12.302;2023-02-15T05:29:49;2.50;99.90
17728;DHT22;8984;49.268;12.302;2023-02-15T05:32:17;2.30;99.90
17728;DHT22;8984;49.268;12.302;2023-02-15T05:34:43;2.20;99.90
17728;DHT22;8984;49.268;12.302;2023-02-15T05:37:10;2.30;99.90
17728;DHT22;8984;49.268;12.302;2023-02-15T05:39:37;2.20;99.90
17728;DHT22;8984;49.268;12.302;2023-02-15T05:42:04;2.30;99.90
17728;DHT22;8984;49.268;12.302;2023-02-15T05:44:30;2.40;99.90
17728;DHT22;8984;49.268;12.302;2023-02-15T05:46:57;2.30;99.90
17728;DHT22;8984;49.268;12.302;2023-02-15T05:49:26;2.50;99.90
17728;DHT22;8984;49.268;12.302;2023-02-15T05:51:53;2.40;99.90
17728;DHT22;8984;49.268;12.302;2023-02-15T05:54:19;2.50;99.90
17728;DHT22;8984;49.268;12.302;2023-02-15T05:56:46;2.50;99.90
17728;DHT22;8984;49.268;12.302;2023-02-15T05:59:13;2.50;99.90
17728;DHT22;8984;49.268;12.302;2023-02-15T06:01:40;2.50;99.90
17728;DHT22;8984;49.268;12.302;2023-02-15T06:04:06;2.40;99.90
17728;DHT22;8984;49.268;12.302;2023-02-15T06:06:34;2.40;99.90
17728;DHT22;8984;49.268;12.302;2023-02-15T06:09:02;2.30;99.90
17728;DHT22;8984;49.268;12.302;2023-02-15T06:11:29;2.40;99.90
17728;DHT22;8984;49.268;12.302;2023-02-15T06:13:56;2.30;99.90
17728;DHT22;8984;49.268;12.302;2023-02-15T06:16:22;2.40;99.90
17728;DHT22;8984;49.268;12.302;2023-02-15T06:18:49;2.40;99.90
17728;DHT22;8984;49.268;12.302;2023-02-15T06:21:16;2.40;99.90
17728;DHT22;8984;49.268;12.302;2023-02-15T06:23:44;2.40;99.90
17728;DHT22;8984;49.268;12.302;2023-02-15T06:26:11;2.40;99.90
17728;DHT22;8984;49.268;12.302;2023-02-15T06:28:37;2.40;99.90
17728;DHT22;8984;49.268;12.302;2023-02-15T06:31:06;2.40;99.90
17728;DHT22;8984;49.268;12.302;2023-02-15T06:33:33;2.40;99.90
17728;DHT22;8984;49.268;12.302;2023-02-15T06:36:00;2.40;99.90
17728;DHT22;8984;49.268;12.302;2023-02-15T06:38:27;2.40;99.90
17728;DHT22;8984;49.268;12.302;2023-02-15T06:40:55;2.40;99.90
17728;DHT22;8984;49.268;12.302;2023-02-15T06:43:22;2.30;99.90
17728;DHT22;8984;49.268;12.302;2023-02-15T06:45:49;2.20;99.90
17728;DHT22;8984;49.268;12.302;2023-02-15T06:48:15;2.20;99.90
17728;DHT22;8984;49.268;12.302;2023-02-15T06:50:42;2.00;99.90
17728;DHT22;8984;49.268;12.302;2023-02-15T06:53:09;2.00;99.90
17728;DHT22;8984;49.268;12.302;2023-02-15T06:55:36;2.00;99.90
17728;DHT22;8984;49.268;12.302;2023-02-15T06:58:04;2.00;99.90
17728;DHT22;8984;49.268;12.302;2023-02-15T07:00:31;2.00;99.90
17728;DHT22;8984;49.268;12.302;2023-02-15T07:02:58;2.00;99.90
17728;DHT22;8984;49.268;12.302;2023-02-15T07:05:25;2.00;99.90
17728;DHT22;8984;49.268;12.302;2023-02-15T07:07:56;2.10;99.90
17728;DHT22;8984;49.268;12.302;2023-02-15T07:10:23;2.10;99.90
17728;DHT22;8984;49.268;12.302;2023-02-15T07:12:50;2.10;99.90
17728;DHT22;8984;49.268;12.302;2023-02-15T07:15:18;2.00;99.90
17728;DHT22;8984;49.268;12.302;2023-02-15T07:17:47;2.10;99.90
17728;DHT22;8984;49.268;12.302;2023-02-15T07:20:15;2.10;99.90
17728;DHT22;8984;49.268;12.302;2023-02-15T07:22:43;2.10;99.90
17728;DHT22;8984;49.268;12.302;2023-02-15T07:25:11;2.00;99.90
17728;DHT22;8984;49.268;12.302;2023-02-15T07:27:38;2.10;99.90
17728;DHT22;8984;49.268;12.302;2023-02-15T07:30:07;2.10;99.90
17728;DHT22;8984;49.268;12.302;2023-02-15T07:32:37;2.20;99.90
17728;DHT22;8984;49.268;12.302;2023-02-15T07:35:24;2.00;99.90
17728;DHT22;8984;49.268;12.302;2023-02-15T07:37:51;2.00;99.90
17728;DHT22;8984;49.268;12.302;2023-02-15T07:40:18;2.10;99.90
17728;DHT22;8984;49.268;12.302;2023-02-15T07:42:47;2.10;99.90
17728;DHT22;8984;49.268;12.302;2023-02-15T07:45:14;2.10;99.90
17728;DHT22;8984;49.268;12.302;2023-02-15T07:47:42;2.10;99.90
17728;DHT22;8984;49.268;12.302;2023-02-15T07:50:09;2.20;99.90
17728;DHT22;8984;49.268;12.302;2023-02-15T07:52:36;2.20;99.90
17728;DHT22;8984;49.268;12.302;2023-02-15T07:55:03;2.10;99.90
17728;DHT22;8984;49.268;12.302;2023-02-15T07:57:30;2.20;99.90
17728;DHT22;8984;49.268;12.302;2023-02-15T07:59:57;1.90;99.90
17728;DHT22;8984;49.268;12.302;2023-02-15T08:02:24;2.00;99.90
17728;DHT22;8984;49.268;12.302;2023-02-15T08:04:52;2.00;99.90
17728;DHT22;8984;49.268;12.302;2023-02-15T08:07:18;2.10;99.90
17728;DHT22;8984;49.268;12.302;2023-02-15T08:09:45;2.00;99.90
17728;DHT22;8984;49.268;12.302;2023-02-15T08:12:12;2.10;99.90
17728;DHT22;8984;49.268;12.302;2023-02-15T08:14:39;2.20;99.90
17728;DHT22;8984;49.268;12.302;2023-02-15T08:17:05;2.10;99.90
17728;DHT22;8984;49.268;12.302;2023-02-15T08:19:32;2.10;99.90
17728;DHT22;8984;49.268;12.302;2023-02-15T08:22:02;2.10;99.90
17728;DHT22;8984;49.268;12.302;2023-02-15T08:24:30;2.10;99.90
17728;DHT22;8984;49.268;12.302;2023-02-15T08:26:58;2.00;99.90
17728;DHT22;8984;49.268;12.302;2023-02-15T08:29:26;2.20;99.90
17728;DHT22;8984;49.268;12.302;2023-02-15T08:31:54;2.20;99.90
17728;DHT22;8984;49.268;12.302;2023-02-15T08:34:24;2.20;99.90
17728;DHT22;8984;49.268;12.302;2023-02-15T08:36:51;2.10;99.90
17728;DHT22;8984;49.268;12.302;2023-02-15T08:39:19;2.20;99.90
17728;DHT22;8984;49.268;12.302;2023-02-15T08:41:47;2.20;99.90
17728;DHT22;8984;49.268;12.302;2023-02-15T08:44:18;2.20;99.90
17728;DHT22;8984;49.268;12.302;2023-02-15T08:46:46;2.30;99.90
17728;DHT22;8984;49.268;12.302;2023-02-15T08:49:15;2.10;99.90
17728;DHT22;8984;49.268;12.302;2023-02-15T08:51:42;2.10;99.90
17728;DHT22;8984;49.268;12.302;2023-02-15T08:54:11;2.20;99.90
17728;DHT22;8984;49.268;12.302;2023-02-15T08:56:41;2.20;99.90
17728;DHT22;8984;49.268;12.302;2023-02-15T08:59:13;2.30;99.90
17728;DHT22;8984;49.268;12.302;2023-02-15T09:01:39;2.40;99.90
17728;DHT22;8984;49.268;12.302;2023-02-15T09:04:07;2.40;99.90
17728;DHT22;8984;49.268;12.302;2023-02-15T09:06:35;2.50;99.90
17728;DHT22;8984;49.268;12.302;2023-02-15T09:09:02;2.60;99.90
17728;DHT22;8984;49.268;12.302;2023-02-15T09:11:33;2.90;99.90
17728;DHT22;8984;49.268;12.302;2023-02-15T09:14:04;2.70;99.90
17728;DHT22;8984;49.268;12.302;2023-02-15T09:16:33;2.70;99.90
17728;DHT22;8984;49.268;12.302;2023-02-15T09:19:00;2.80;99.90
17728;DHT22;8984;49.268;12.302;2023-02-15T09:21:28;2.90;99.90
17728;DHT22;8984;49.268;12.302;2023-02-15T09:23:57;3.00;99.90
17728;DHT22;8984;49.268;12.302;2023-02-15T09:26:27;3.00;99.90
17728;DHT22;8984;49.268;12.302;2023-02-15T09:28:55;3.10;99.90
17728;DHT22;8984;49.268;12.302;2023-02-15T09:31:25;3.10;99.90
17728;DHT22;8984;49.268;12.302;2023-02-15T09:33:53;3.10;99.90
17728;DHT22;8984;49.268;12.302;2023-02-15T09:36:22;3.20;99.90
17728;DHT22;8984;49.268;12.302;2023-02-15T09:38:55;3.20;99.90
17728;DHT22;8984;49.268;12.302;2023-02-15T09:44:54;3.30;99.90
17728;DHT22;8984;49.268;12.302;2023-02-15T09:47:46;3.20;99.90
17728;DHT22;8984;49.268;12.302;2023-02-15T09:50:21;3.10;99.90
17728;DHT22;8984;49.268;12.302;2023-02-15T09:53:03;3.20;99.90
17728;DHT22;8984;49.268;12.302;2023-02-15T09:55:42;3.20;99.90
17728;DHT22;8984;49.268;12.302;2023-02-15T09:58:17;3.20;99.90
17728;DHT22;8984;49.268;12.302;2023-02-15T10:00:53;3.20;99.90
17728;DHT22;8984;49.268;12.302;2023-02-15T10:03:35;3.30;99.90
17728;DHT22;8984;49.268;12.302;2023-02-15T10:09:43;3.40;99.90
17728;DHT22;8984;49.268;12.302;2023-02-15T10:12:23;3.30;99.90
17728;DHT22;8984;49.268;12.302;2023-02-15T10:15:07;3.40;99.90
17728;DHT22;8984;49.268;12.302;2023-02-15T10:17:46;3.50;99.90
17728;DHT22;8984;49.268;12.302;2023-02-15T10:20:25;3.60;99.90
17728;DHT22;8984;49.268;12.302;2023-02-15T10:23:08;3.50;99.90
17728;DHT22;8984;49.268;12.302;2023-02-15T10:25:42;3.60;99.90
17728;DHT22;8984;49.268;12.302;2023-02-15T10:28:16;3.70;99.90
17728;DHT22;8984;49.268;12.302;2023-02-15T10:30:46;3.80;99.90
17728;DHT22;8984;49.268;12.302;2023-02-15T10:33:24;3.90;99.90
17728;DHT22;8984;49.268;12.302;2023-02-15T10:36:04;4.00;99.90
17728;DHT22;8984;49.268;12.302;2023-02-15T10:38:38;4.00;99.90
17728;DHT22;8984;49.268;12.302;2023-02-15T10:41:20;4.00;99.90
17728;DHT22;8984;49.268;12.302;2023-02-15T10:44:19;4.00;99.90
17728;DHT22;8984;49.268;12.302;2023-02-15T10:47:05;4.00;99.90
17728;DHT22;8984;49.268;12.302;2023-02-15T10:50:06;3.90;99.90
17728;DHT22;8984;49.268;12.302;2023-02-15T10:52:48;3.80;99.90
17728;DHT22;8984;49.268;12.302;2023-02-15T10:55:29;3.90;99.90
17728;DHT22;8984;49.268;12.302;2023-02-15T10:58:07;3.90;99.90
17728;DHT22;8984;49.268;12.302;2023-02-15T11:00:41;3.80;99.90
17728;DHT22;8984;49.268;12.302;2023-02-15T11:03:26;3.90;99.90
17728;DHT22;8984;49.268;12.302;2023-02-15T11:06:03;3.90;99.90
17728;DHT22;8984;49.268;12.302;2023-02-15T11:08:35;3.90;99.90
17728;DHT22;8984;49.268;12.302;2023-02-15T11:11:06;3.80;99.90
17728;DHT22;8984;49.268;12.302;2023-02-15T11:13:38;3.80;99.90
17728;DHT22;8984;49.268;12.302;2023-02-15T11:16:10;3.90;99.90
17728;DHT22;8984;49.268;12.302;2023-02-15T11:18:40;3.70;99.90
17728;DHT22;8984;49.268;12.302;2023-02-15T11:21:11;3.60;99.90
17728;DHT22;8984;49.268;12.302;2023-02-15T11:23:43;3.80;99.90
17728;DHT22;8984;49.268;12.302;2023-02-15T11:26:14;3.80;99.90
17728;DHT22;8984;49.268;12.302;2023-02-15T11:28:47;3.80;99.90
17728;DHT22;8984;49.268;12.302;2023-02-15T11:31:17;3.90;99.90
17728;DHT22;8984;49.268;12.302;2023-02-15T11:33:47;3.90;99.90
17728;DHT22;8984;49.268;12.302;2023-02-15T11:36:16;4.00;99.90
17728;DHT22;8984;49.268;12.302;2023-02-15T11:38:49;4.00;99.90
17728;DHT22;8984;49.268;12.302;2023-02-15T11:41:21;4.20;99.90
17728;DHT22;8984;49.268;12.302;2023-02-15T11:43:54;4.20;99.90
17728;DHT22;8984;49.268;12.302;2023-02-15T11:46:23;4.30;99.90
17728;DHT22;8984;49.268;12.302;2023-02-15T11:48:50;4.20;99.90
17728;DHT22;8984;49.268;12.302;2023-02-15T11:51:21;4.30;99.90
17728;DHT22;8984;49.268;12.302;2023-02-15T11:53:50;4.50;99.90
17728;DHT22;8984;49.268;12.302;2023-02-15T11:56:19;4.40;99.90
17728;DHT22;8984;49.268;12.302;2023-02-15T11:58:49;4.40;99.90
17728;DHT22;8984;49.268;12.302;2023-02-15T12:01:21;4.50;99.90
17728;DHT22;8984;49.268;12.302;2023-02-15T12:03:52;4.60;99.90
17728;DHT22;8984;49.268;12.302;2023-02-15T12:06:24;4.60;99.90
17728;DHT22;8984;49.268;12.302;2023-02-15T12:08:57;4.70;99.90
17728;DHT22;8984;49.268;12.302;2023-02-15T12:11:32;4.70;99.90
17728;DHT22;8984;49.268;12.302;2023-02-15T12:14:02;4.80;99.90
17728;DHT22;8984;49.268;12.302;2023-02-15T12:16:33;4.80;99.90
17728;DHT22;8984;49.268;12.302;2023-02-15T12:19:19;4.80;99.90
17728;DHT22;8984;49.268;12.302;2023-02-15T12:21:51;4.90;99.90
17728;DHT22;8984;49.268;12.302;2023-02-15T12:24:22;5.00;99.90
17728;DHT22;8984;49.268;12.302;2023-02-15T12:26:58;5.00;99.90
17728;DHT22;8984;49.268;12.302;2023-02-15T12:29:27;5.20;99.90
17728;DHT22;8984;49.268;12.302;2023-02-15T12:31:56;5.10;99.90
17728;DHT22;8984;49.268;12.302;2023-02-15T12:34:28;5.10;99.90
17728;DHT22;8984;49.268;12.302;2023-02-15T12:36:57;5.10;99.90
17728;DHT22;8984;49.268;12.302;2023-02-15T12:39:30;5.20;99.90
17728;DHT22;8984;49.268;12.302;2023-02-15T12:42:00;5.30;99.90
17728;DHT22;8984;49.268;12.302;2023-02-15T12:44:28;5.40;99.90
17728;DHT22;8984;49.268;12.302;2023-02-15T12:46:58;5.30;99.90
17728;DHT22;8984;49.268;12.302;2023-02-15T12:49:25;5.40;99.90
17728;DHT22;8984;49.268;12.302;2023-02-15T12:51:54;5.40;99.90
17728;DHT22;8984;49.268;12.302;2023-02-15T12:54:35;5.30;99.90
17728;DHT22;8984;49.268;12.302;2023-02-15T12:57:24;5.40;99.90
17728;DHT22;8984;49.268;12.302;2023-02-15T12:59:53;5.20;99.90
17728;DHT22;8984;49.268;12.302;2023-02-15T13:02:29;5.30;99.90
17728;DHT22;8984;49.268;12.302;2023-02-15T13:05:03;5.30;99.90
17728;DHT22;8984;49.268;12.302;2023-02-15T13:07:31;5.50;99.90
17728;DHT22;8984;49.268;12.302;2023-02-15T13:10:00;5.50;99.90
17728;DHT22;8984;49.268;12.302;2023-02-15T13:12:28;5.30;99.90
17728;DHT22;8984;49.268;12.302;2023-02-15T13:14:57;5.50;99.90
17728;DHT22;8984;49.268;12.302;2023-02-15T13:17:26;5.40;99.90
17728;DHT22;8984;49.268;12.302;2023-02-15T13:19:57;5.40;99.90
17728;DHT22;8984;49.268;12.302;2023-02-15T13:22:28;5.50;99.90
17728;DHT22;8984;49.268;12.302;2023-02-15T13:25:04;5.40;99.90
17728;DHT22;8984;49.268;12.302;2023-02-15T13:27:38;5.50;99.90
17728;DHT22;8984;49.268;12.302;2023-02-15T13:30:17;5.50;99.90
17728;DHT22;8984;49.268;12.302;2023-02-15T13:32:49;5.50;99.90
17728;DHT22;8984;49.268;12.302;2023-02-15T13:35:18;5.60;99.90
17728;DHT22;8984;49.268;12.302;2023-02-15T13:38:03;5.60;99.90
17728;DHT22;8984;49.268;12.302;2023-02-15T13:40:37;5.40;99.90
17728;DHT22;8984;49.268;12.302;2023-02-15T13:43:26;5.50;99.90
17728;DHT22;8984;49.268;12.302;2023-02-15T13:46:04;5.50;99.90
17728;DHT22;8984;49.268;12.302;2023-02-15T13:48:41;5.50;99.90
17728;DHT22;8984;49.268;12.302;2023-02-15T13:51:16;5.50;99.90
17728;DHT22;8984;49.268;12.302;2023-02-15T13:53:59;5.40;99.90
17728;DHT22;8984;49.268;12.302;2023-02-15T13:56:36;5.30;99.90
17728;DHT22;8984;49.268;12.302;2023-02-15T14:02:46;5.20;99.90
17728;DHT22;8984;49.268;12.302;2023-02-15T14:08:12;5.20;99.90
17728;DHT22;8984;49.268;12.302;2023-02-15T14:10:49;5.20;99.90
17728;DHT22;8984;49.268;12.302;2023-02-15T14:13:44;5.10;99.90
17728;DHT22;8984;49.268;12.302;2023-02-15T14:16:19;5.10;99.90
17728;DHT22;8984;49.268;12.302;2023-02-15T14:18:53;5.10;99.90
17728;DHT22;8984;49.268;12.302;2023-02-15T14:21:28;5.00;99.90
17728;DHT22;8984;49.268;12.302;2023-02-15T14:24:06;4.80;99.90
17728;DHT22;8984;49.268;12.302;2023-02-15T14:26:38;4.50;99.90
17728;DHT22;8984;49.268;12.302;2023-02-15T14:29:16;4.50;99.90
17728;DHT22;8984;49.268;12.302;2023-02-15T14:31:46;4.60;99.90
17728;DHT22;8984;49.268;12.302;2023-02-15T14:34:21;4.70;99.90
17728;DHT22;8984;49.268;12.302;2023-02-15T14:36:50;4.70;99.90
17728;DHT22;8984;49.268;12.302;2023-02-15T14:39:26;4.70;99.90
17728;DHT22;8984;49.268;12.302;2023-02-15T14:42:18;4.70;99.90
17728;DHT22;8984;49.268;12.302;2023-02-15T14:44:54;4.70;99.90
17728;DHT22;8984;49.268;12.302;2023-02-15T14:47:26;4.30;99.90
17728;DHT22;8984;49.268;12.302;2023-02-15T14:49:53;4.30;99.90
17728;DHT22;8984;49.268;12.302;2023-02-15T14:52:20;4.30;99.90
17728;DHT22;8984;49.268;12.302;2023-02-15T14:54:57;4.30;99.90
17728;DHT22;8984;49.268;12.302;2023-02-15T14:57:34;4.30;99.90
17728;DHT22;8984;49.268;12.302;2023-02-15T15:00:30;4.30;99.90
17728;DHT22;8984;49.268;12.302;2023-02-15T15:03:00;4.20;99.90
17728;DHT22;8984;49.268;12.302;2023-02-15T15:05:33;4.20;99.90
17728;DHT22;8984;49.268;12.302;2023-02-15T15:08:02;4.30;99.90
17728;DHT22;8984;49.268;12.302;2023-02-15T15:10:37;4.40;99.90
17728;DHT22;8984;49.268;12.302;2023-02-15T15:13:36;4.30;99.90
17728;DHT22;8984;49.268;12.302;2023-02-15T15:16:29;4.40;99.90
17728;DHT22;8984;49.268;12.302;2023-02-15T15:18:57;4.40;99.90
17728;DHT22;8984;49.268;12.302;2023-02-15T15:21:56;4.30;99.90
17728;DHT22;8984;49.268;12.302;2023-02-15T15:24:50;4.20;99.90
17728;DHT22;8984;49.268;12.302;2023-02-15T15:27:51;4.30;99.90
17728;DHT22;8984;49.268;12.302;2023-02-15T15:30:47;4.30;99.90
17728;DHT22;8984;49.268;12.302;2023-02-15T15:33:43;4.20;99.90
17728;DHT22;8984;49.268;12.302;2023-02-15T15:39:44;4.00;99.90
17728;DHT22;8984;49.268;12.302;2023-02-15T15:42:28;4.00;99.90
17728;DHT22;8984;49.268;12.302;2023-02-15T15:45:24;4.00;99.90
17728;DHT22;8984;49.268;12.302;2023-02-15T15:48:02;4.10;99.90
17728;DHT22;8984;49.268;12.302;2023-02-15T15:50:32;4.10;99.90
17728;DHT22;8984;49.268;12.302;2023-02-15T15:53:10;4.10;99.90
17728;DHT22;8984;49.268;12.302;2023-02-15T15:55:46;4.10;99.90
17728;DHT22;8984;49.268;12.302;2023-02-15T15:58:16;4.00;99.90
17728;DHT22;8984;49.268;12.302;2023-02-15T16:00:47;4.10;99.90
17728;DHT22;8984;49.268;12.302;2023-02-15T16:03:15;4.10;99.90
17728;DHT22;8984;49.268;12.302;2023-02-15T16:05:43;4.10;99.90
17728;DHT22;8984;49.268;12.302;2023-02-15T16:08:10;4.10;99.90
17728;DHT22;8984;49.268;12.302;2023-02-15T16:10:37;4.10;99.90
17728;DHT22;8984;49.268;12.302;2023-02-15T16:13:06;4.10;99.90
17728;DHT22;8984;49.268;12.302;2023-02-15T16:15:36;4.10;99.90
17728;DHT22;8984;49.268;12.302;2023-02-15T16:18:13;4.10;99.90
17728;DHT22;8984;49.268;12.302;2023-02-15T16:20:49;4.10;99.90
17728;DHT22;8984;49.268;12.302;2023-02-15T16:23:31;4.00;99.90
17728;DHT22;8984;49.268;12.302;2023-02-15T16:26:06;4.00;99.90
17728;DHT22;8984;49.268;12.302;2023-02-15T16:28:34;3.90;99.90
17728;DHT22;8984;49.268;12.302;2023-02-15T16:31:07;3.70;99.90
17728;DHT22;8984;49.268;12.302;2023-02-15T16:33:36;3.80;99.90
17728;DHT22;8984;49.268;12.302;2023-02-15T16:36:06;3.80;99.90
17728;DHT22;8984;49.268;12.302;2023-02-15T16:39:06;3.80;99.90
17728;DHT22;8984;49.268;12.302;2023-02-15T16:41:33;3.60;99.90